Time;durP1;ratioP1;P1;durP2;ratioP2;P2;SDS_P1;SDS_P2;PMS_P1;PMS_P2;Temp;Humidity;BMP_temperature;BMP_pressure;BME280_temperature;BME280_humidity;BME280_pressure;Samples;Min_cycle;Max_cycle;Signal;HPM_P1;HPM_P2
2022/05/09 00:02:16;;;;;;;9.97;8.77;;;11.40;99.90;;;;;;4994580;28;20325;-79
2022/05/09 00:04:44;;;;;;;11.03;9.43;;;11.30;99.90;;;;;;4994751;28;20222;-79
2022/05/09 00:07:11;;;;;;;10.57;9.53;;;11.20;99.90;;;;;;4994784;28;20347;-78
2022/05/09 00:09:38;;;;;;;10.43;9.37;;;11.20;99.90;;;;;;4994894;28;20226;-79
2022/05/09 00:12:05;;;;;;;10.13;9.13;;;11.20;99.90;;;;;;4994287;28;20206;-77
2022/05/09 00:14:32;;;;;;;10.03;9.03;;;11.20;99.90;;;;;;4994732;28;20229;-79
2022/05/09 00:16:59;;;;;;;9.60;8.60;;;11.10;99.90;;;;;;4994805;28;20299;-78
2022/05/09 00:19:26;;;;;;;12.73;11.43;;;11.10;99.90;;;;;;4995937;28;20288;-78
2022/05/09 00:21:55;;;;;;;11.90;10.80;;;11.00;99.90;;;;;;4998888;28;20228;-78
2022/05/09 00:24:22;;;;;;;11.17;10.20;;;11.00;99.90;;;;;;5012697;28;20318;-78
2022/05/09 00:26:52;;;;;;;13.30;12.13;;;10.90;99.90;;;;;;4998363;28;20204;-78
2022/05/09 00:29:20;;;;;;;14.00;12.80;;;10.90;99.90;;;;;;4998672;28;20202;-79
2022/05/09 00:31:49;;;;;;;15.17;13.77;;;10.80;99.90;;;;;;4998666;28;20212;-78
2022/05/09 00:34:18;;;;;;;15.83;14.53;;;10.70;99.90;;;;;;4998456;28;20224;-78
2022/05/09 00:36:46;;;;;;;15.87;14.50;;;10.60;99.90;;;;;;4998815;28;20196;-78
2022/05/09 00:39:15;;;;;;;15.80;14.40;;;10.60;99.90;;;;;;4998305;28;20576;-79
2022/05/09 00:41:43;;;;;;;15.37;14.07;;;10.60;99.90;;;;;;4998087;28;20283;-79
2022/05/09 00:44:12;;;;;;;15.70;14.20;;;10.50;99.90;;;;;;5016087;28;20227;-78
2022/05/09 00:46:40;;;;;;;15.60;14.03;;;10.50;99.90;;;;;;4998134;28;20223;-76
2022/05/09 00:49:14;;;;;;;15.37;13.90;;;10.60;99.90;;;;;;4998646;28;20204;-78
2022/05/09 00:51:47;;;;;;;14.30;12.70;;;10.50;99.90;;;;;;4996616;28;20210;-79
2022/05/09 00:54:19;;;;;;;14.40;13.10;;;10.50;99.90;;;;;;4998233;28;20228;-78
2022/05/09 00:56:55;;;;;;;13.80;12.40;;;10.50;99.90;;;;;;4997976;28;20604;-78
2022/05/09 00:59:23;;;;;;;13.93;12.50;;;10.50;99.90;;;;;;4998177;28;20199;-78
2022/05/09 01:01:51;;;;;;;14.10;12.80;;;10.40;99.90;;;;;;4997700;28;20683;-79
2022/05/09 01:04:21;;;;;;;12.17;10.80;;;10.40;99.90;;;;;;4997653;28;20242;-79
2022/05/09 01:06:48;;;;;;;11.67;10.53;;;10.40;99.90;;;;;;5020735;28;20224;-78
2022/05/09 01:09:16;;;;;;;12.00;10.80;;;10.30;99.90;;;;;;5014247;28;20703;-77
2022/05/09 01:11:46;;;;;;;10.70;9.70;;;10.30;99.90;;;;;;4997611;28;20673;-78
2022/05/09 01:14:17;;;;;;;11.40;10.30;;;10.20;99.90;;;;;;4997433;28;20248;-78
2022/05/09 01:16:46;;;;;;;11.13;10.13;;;10.20;99.90;;;;;;4997269;28;20571;-79
2022/05/09 01:19:31;;;;;;;13.80;12.50;;;10.20;99.90;;;;;;4997558;28;20207;-78
2022/05/09 01:22:00;;;;;;;13.77;12.57;;;10.10;99.90;;;;;;5013366;28;20212;-78
2022/05/09 01:24:29;;;;;;;12.87;11.77;;;10.10;99.90;;;;;;4995783;28;20299;-79
2022/05/09 01:26:57;;;;;;;13.13;11.33;;;10.20;99.90;;;;;;5021519;28;20304;-78
2022/05/09 01:29:37;;;;;;;12.53;11.33;;;10.10;99.90;;;;;;4997198;28;20240;-78
2022/05/09 01:32:08;;;;;;;13.87;12.57;;;10.10;99.90;;;;;;4997246;28;20210;-78
2022/05/09 01:34:36;;;;;;;12.50;11.43;;;10.10;99.90;;;;;;4996661;28;20232;-78
2022/05/09 01:37:07;;;;;;;13.30;11.97;;;10.10;99.90;;;;;;4997082;28;20315;-78
2022/05/09 01:39:36;;;;;;;12.13;11.03;;;10.00;99.90;;;;;;4998935;28;20191;-79
2022/05/09 01:42:06;;;;;;;12.00;10.93;;;10.00;99.90;;;;;;4999520;28;20210;-79
2022/05/09 01:44:33;;;;;;;11.57;10.17;;;10.00;99.90;;;;;;5015538;28;20240;-79
2022/05/09 01:49:45;;;;;;;12.43;11.33;;;10.00;99.90;;;;;;5013229;28;20192;-79
2022/05/09 01:52:15;;;;;;;12.30;11.27;;;10.00;99.90;;;;;;4998767;28;20200;-79
2022/05/09 01:54:43;;;;;;;12.13;11.07;;;10.00;99.90;;;;;;4999533;28;20270;-79
2022/05/09 01:57:11;;;;;;;12.57;11.47;;;9.90;99.90;;;;;;4999545;28;20227;-79
2022/05/09 01:59:38;;;;;;;12.13;11.03;;;9.90;99.90;;;;;;5015661;28;20208;-79
2022/05/09 02:02:10;;;;;;;10.70;9.70;;;9.80;99.90;;;;;;4998498;28;20276;-78
2022/05/09 02:04:40;;;;;;;9.50;8.60;;;9.80;99.90;;;;;;5034862;23;20231;-77
2022/05/09 02:07:09;;;;;;;10.73;9.63;;;9.70;99.90;;;;;;5023824;28;20204;-78
2022/05/09 02:09:40;;;;;;;11.27;10.17;;;9.60;99.90;;;;;;5020290;28;20208;-77
2022/05/09 02:12:08;;;;;;;11.53;10.33;;;9.60;99.90;;;;;;5021051;28;20204;-76
2022/05/09 02:14:35;;;;;;;10.93;9.83;;;9.60;99.90;;;;;;5007091;28;20220;-78
2022/05/09 02:17:02;;;;;;;11.97;10.23;;;9.50;99.90;;;;;;5022743;28;20208;-77
2022/05/09 02:19:29;;;;;;;10.97;9.87;;;9.50;99.90;;;;;;5013261;28;20231;-77
2022/05/09 02:21:56;;;;;;;10.63;9.53;;;9.50;99.90;;;;;;5021361;28;20235;-77
2022/05/09 02:24:23;;;;;;;10.70;9.60;;;9.50;99.90;;;;;;5003246;28;20248;-76
2022/05/09 02:26:52;;;;;;;9.97;8.97;;;9.50;99.90;;;;;;4997995;28;20201;-76
2022/05/09 02:29:19;;;;;;;12.07;10.87;;;9.50;99.90;;;;;;5017264;28;20207;-76
2022/05/09 02:31:46;;;;;;;11.33;10.03;;;9.50;99.90;;;;;;4998592;28;20235;-76
2022/05/09 02:34:14;;;;;;;10.87;9.50;;;9.50;99.90;;;;;;5012463;28;20219;-79
2022/05/09 02:36:41;;;;;;;11.53;10.33;;;9.40;99.90;;;;;;5006811;28;20294;-79
2022/05/09 02:39:09;;;;;;;11.57;9.57;;;9.50;99.90;;;;;;5002578;28;20204;-76
2022/05/09 02:41:39;;;;;;;12.00;10.57;;;9.40;99.90;;;;;;5000843;28;20247;-77
2022/05/09 02:44:07;;;;;;;13.30;10.33;;;9.40;99.90;;;;;;5009481;28;20224;-77
2022/05/09 02:46:34;;;;;;;11.07;9.87;;;9.40;99.90;;;;;;5009331;28;20665;-78
2022/05/09 02:49:02;;;;;;;11.50;10.40;;;9.40;99.90;;;;;;4992270;28;20254;-78
2022/05/09 02:51:30;;;;;;;11.93;10.67;;;9.40;99.90;;;;;;4995536;28;20212;-76
2022/05/09 02:53:59;;;;;;;11.23;10.13;;;9.40;99.90;;;;;;4999113;28;20712;-78
2022/05/09 02:56:26;;;;;;;11.43;10.33;;;9.30;99.90;;;;;;5004483;28;20231;-81
2022/05/09 02:58:54;;;;;;;13.10;10.87;;;9.30;99.90;;;;;;5003033;28;20228;-82
2022/05/09 03:01:22;;;;;;;13.03;11.63;;;9.20;99.90;;;;;;5006248;28;20292;-82
2022/05/09 03:06:35;;;;;;;14.03;12.73;;;9.10;99.90;;;;;;5002144;28;20192;-81
2022/05/09 03:09:03;;;;;;;14.10;12.80;;;9.10;99.90;;;;;;4990944;28;20213;-81
2022/05/09 03:11:30;;;;;;;12.87;11.67;;;9.10;99.90;;;;;;4996805;28;20688;-83
2022/05/09 03:13:57;;;;;;;13.50;12.27;;;9.10;99.90;;;;;;5009606;28;20219;-83
2022/05/09 03:16:29;;;;;;;13.87;12.57;;;9.00;99.90;;;;;;5001044;28;20275;-85
2022/05/09 03:18:56;;;;;;;15.00;13.60;;;9.00;99.90;;;;;;5000889;28;20218;-82
2022/05/09 03:21:23;;;;;;;14.73;13.43;;;8.90;99.90;;;;;;5004219;28;20574;-82
2022/05/09 03:23:50;;;;;;;16.47;14.97;;;8.90;99.90;;;;;;4997393;28;20223;-85
2022/05/09 03:26:18;;;;;;;10.50;9.37;;;8.90;99.90;;;;;;5005867;28;20195;-78
2022/05/09 03:28:45;;;;;;;10.50;9.07;;;8.90;99.90;;;;;;5008305;28;20198;-79
2022/05/09 03:31:13;;;;;;;13.53;9.83;;;8.90;99.90;;;;;;5007500;28;20564;-78
2022/05/09 03:33:41;;;;;;;11.10;9.40;;;8.90;99.90;;;;;;5005629;28;20220;-79
2022/05/09 03:36:08;;;;;;;10.80;9.03;;;8.90;99.90;;;;;;5010738;28;20765;-78
2022/05/09 03:38:36;;;;;;;11.77;9.50;;;8.90;99.90;;;;;;5015412;28;20219;-78
2022/05/09 03:41:02;;;;;;;10.50;9.13;;;8.90;99.90;;;;;;5011972;28;20611;-78
2022/05/09 03:43:30;;;;;;;11.13;9.57;;;8.90;99.90;;;;;;5001825;28;20287;-78
2022/05/09 03:46:00;;;;;;;11.33;8.97;;;8.80;99.90;;;;;;5003527;28;20231;-78
2022/05/09 03:48:27;;;;;;;10.27;9.17;;;8.80;99.90;;;;;;5017324;28;20233;-78
2022/05/09 03:50:56;;;;;;;10.00;8.90;;;8.80;99.90;;;;;;5004890;28;20583;-78
2022/05/09 03:53:24;;;;;;;10.60;9.50;;;8.80;99.90;;;;;;4999076;28;20291;-79
2022/05/09 03:55:51;;;;;;;9.53;8.30;;;8.90;99.90;;;;;;5012464;28;20219;-78
2022/05/09 03:58:18;;;;;;;12.03;9.10;;;8.80;99.90;;;;;;5009794;28;20207;-78
2022/05/09 04:00:45;;;;;;;13.03;9.77;;;8.90;99.90;;;;;;5009473;28;20291;-78
2022/05/09 04:03:12;;;;;;;11.43;9.37;;;8.80;99.90;;;;;;5008185;28;20354;-79
2022/05/09 04:05:42;;;;;;;10.77;8.90;;;8.90;99.90;;;;;;5009609;28;20188;-78
2022/05/09 04:08:12;;;;;;;10.97;8.87;;;8.90;99.90;;;;;;5024397;28;20208;-79
2022/05/09 04:10:41;;;;;;;10.40;9.30;;;8.90;99.90;;;;;;5001397;28;20204;-80
2022/05/09 04:13:08;;;;;;;10.77;9.60;;;9.00;99.90;;;;;;5016176;28;20202;-79
2022/05/09 04:18:21;;;;;;;12.93;9.83;;;9.10;99.90;;;;;;5015642;28;20198;-79
2022/05/09 04:20:50;;;;;;;11.83;10.73;;;9.10;99.90;;;;;;5011597;28;20196;-78
2022/05/09 04:23:19;;;;;;;13.27;10.90;;;9.10;99.90;;;;;;5006428;28;20228;-79
2022/05/09 04:25:48;;;;;;;14.40;10.20;;;9.10;99.90;;;;;;5009190;28;20200;-78
2022/05/09 04:28:18;;;;;;;17.53;10.93;;;9.10;99.90;;;;;;5009478;28;20227;-78
2022/05/09 04:30:46;;;;;;;13.10;10.17;;;9.00;99.90;;;;;;5015531;28;20643;-79
2022/05/09 04:33:14;;;;;;;11.30;9.70;;;9.10;99.90;;;;;;5016247;28;20198;-79
2022/05/09 04:35:42;;;;;;;11.70;10.20;;;9.10;99.90;;;;;;5004824;28;20676;-79
2022/05/09 04:38:14;;;;;;;11.67;10.20;;;9.20;99.90;;;;;;5007765;28;20204;-79
2022/05/09 04:40:44;;;;;;;15.57;11.23;;;9.30;99.90;;;;;;5000266;28;20255;-79
2022/05/09 04:43:11;;;;;;;11.87;9.90;;;9.40;99.90;;;;;;5005996;28;20211;-78
2022/05/09 04:45:38;;;;;;;11.73;9.93;;;9.50;99.90;;;;;;4992862;28;20716;-78
2022/05/09 04:48:07;;;;;;;13.20;11.80;;;9.60;99.90;;;;;;5006884;28;20201;-78
2022/05/09 04:50:34;;;;;;;16.33;14.83;;;9.80;99.90;;;;;;5033240;28;20206;-79
2022/05/09 04:53:02;;;;;;;14.80;13.40;;;9.90;99.90;;;;;;5014915;28;20242;-79
2022/05/09 04:55:29;;;;;;;13.20;12.00;;;10.10;99.90;;;;;;5003079;28;20228;-79
2022/05/09 04:57:59;;;;;;;15.77;14.47;;;10.20;99.90;;;;;;5007723;28;20196;-79
2022/05/09 05:00:28;;;;;;;13.40;12.20;;;10.40;99.90;;;;;;5007322;28;20680;-79
2022/05/09 05:02:55;;;;;;;10.53;9.43;;;10.50;99.90;;;;;;5008924;28;20283;-79
2022/05/09 05:05:23;;;;;;;15.33;13.93;;;10.70;99.90;;;;;;5022902;28;20596;-79
2022/05/09 05:07:50;;;;;;;13.30;12.00;;;10.80;99.90;;;;;;5015438;28;20203;-79
2022/05/09 05:10:18;;;;;;;16.57;12.50;;;11.10;99.90;;;;;;5016729;28;20200;-78
2022/05/09 05:12:45;;;;;;;22.30;10.17;;;11.30;99.90;;;;;;5004915;28;20555;-78
2022/05/09 05:15:14;;;;;;;17.97;10.40;;;11.50;99.90;;;;;;5011717;28;20248;-78
2022/05/09 05:17:41;;;;;;;14.37;12.83;;;11.60;99.90;;;;;;5006451;28;20300;-79
2022/05/09 05:20:12;;;;;;;10.00;9.00;;;11.80;99.90;;;;;;5005943;28;20210;-78
2022/05/09 05:22:41;;;;;;;11.33;9.43;;;12.10;99.90;;;;;;4993886;28;20201;-78
2022/05/09 05:25:09;;;;;;;11.33;10.23;;;12.20;99.90;;;;;;5024382;28;20220;-78
2022/05/09 05:27:36;;;;;;;11.80;10.70;;;12.40;99.90;;;;;;5017246;28;20286;-78
2022/05/09 05:30:04;;;;;;;11.37;10.37;;;12.70;99.90;;;;;;5013201;28;20195;-78
2022/05/09 05:32:36;;;;;;;9.37;8.47;;;13.20;99.90;;;;;;5001949;28;20204;-79
2022/05/09 05:35:05;;;;;;;14.20;12.80;;;13.60;99.90;;;;;;5004401;28;20226;-80
2022/05/09 05:37:33;;;;;;;11.90;10.43;;;13.90;99.90;;;;;;5006934;28;20200;-79
2022/05/09 05:40:00;;;;;;;9.87;8.97;;;14.30;99.90;;;;;;5005841;28;20197;-78
2022/05/09 05:42:29;;;;;;;22.07;12.97;;;14.70;99.90;;;;;;5009559;28;20209;-81
2022/05/09 05:44:56;;;;;;;13.90;12.67;;;15.10;99.90;;;;;;5008864;28;20696;-80
2022/05/09 05:47:24;;;;;;;15.47;14.07;;;15.50;99.90;;;;;;5015033;28;20285;-79
2022/05/09 05:49:52;;;;;;;13.53;12.40;;;15.60;99.90;;;;;;5003891;28;20202;-79
2022/05/09 05:52:21;;;;;;;13.53;12.40;;;15.60;99.90;;;;;;5003315;28;20253;-79
2022/05/09 05:54:48;;;;;;;13.67;12.40;;;15.40;99.90;;;;;;5005781;28;20225;-79
2022/05/09 05:57:20;;;;;;;12.93;11.73;;;15.30;99.90;;;;;;5006311;28;20318;-79
2022/05/09 05:59:51;;;;;;;12.30;11.30;;;15.10;99.90;;;;;;5005742;28;20231;-81
2022/05/09 06:02:19;;;;;;;14.73;13.27;;;15.00;99.90;;;;;;5013368;28;20231;-79
2022/05/09 06:04:46;;;;;;;13.00;12.00;;;14.80;99.90;;;;;;5000463;28;20223;-80
2022/05/09 06:07:16;;;;;;;12.50;11.40;;;14.90;99.90;;;;;;5013210;28;20195;-80
2022/05/09 06:09:45;;;;;;;12.70;11.60;;;14.90;99.90;;;;;;5003105;28;20420;-80
2022/05/09 06:12:13;;;;;;;12.60;11.57;;;14.90;99.90;;;;;;5009801;28;20653;-80
2022/05/09 06:14:40;;;;;;;14.13;12.93;;;14.90;99.90;;;;;;5006242;28;20223;-80
2022/05/09 06:17:07;;;;;;;13.53;12.43;;;15.00;99.90;;;;;;5011588;28;20218;-80
2022/05/09 06:19:35;;;;;;;12.57;11.37;;;15.00;99.90;;;;;;5000636;28;20761;-80
2022/05/09 06:22:04;;;;;;;13.97;12.87;;;15.10;99.90;;;;;;5004265;28;20719;-80
2022/05/09 06:24:32;;;;;;;13.73;12.63;;;15.20;99.90;;;;;;5006449;28;20654;-80
2022/05/09 06:26:59;;;;;;;13.90;12.70;;;15.10;99.90;;;;;;5001295;28;20222;-80
2022/05/09 06:29:26;;;;;;;14.20;12.70;;;15.20;99.90;;;;;;4998907;28;20313;-80
2022/05/09 06:31:54;;;;;;;13.00;11.90;;;15.40;99.90;;;;;;5013894;28;20279;-80
2022/05/09 06:34:21;;;;;;;12.83;11.83;;;15.60;99.90;;;;;;5012773;28;20217;-79
2022/05/09 06:36:48;;;;;;;17.13;15.30;;;15.90;99.90;;;;;;5002984;28;20303;-80
2022/05/09 06:39:15;;;;;;;12.47;11.37;;;16.20;99.90;;;;;;5002846;28;20717;-79
2022/05/09 06:41:43;;;;;;;10.40;9.43;;;16.60;99.90;;;;;;5005375;28;20251;-80
2022/05/09 06:44:10;;;;;;;11.30;9.63;;;16.90;99.90;;;;;;5018090;28;20317;-80
2022/05/09 06:46:37;;;;;;;9.80;8.90;;;17.00;99.90;;;;;;5013020;28;20816;-79
2022/05/09 06:49:04;;;;;;;13.97;12.80;;;17.10;99.90;;;;;;5003376;28;20194;-79
2022/05/09 06:51:31;;;;;;;12.03;10.73;;;17.30;99.90;;;;;;4999273;28;20295;-79
2022/05/09 06:53:58;;;;;;;13.97;12.67;;;17.60;99.90;;;;;;5003259;28;20219;-79
2022/05/09 06:56:25;;;;;;;11.13;10.13;;;17.90;99.90;;;;;;5002086;28;20219;-79
2022/05/09 06:58:53;;;;;;;16.80;15.43;;;18.30;99.90;;;;;;5003845;28;20198;-80
2022/05/09 07:01:21;;;;;;;15.50;14.20;;;18.50;99.90;;;;;;5004645;28;20207;-79
2022/05/09 07:03:48;;;;;;;17.27;15.77;;;18.60;99.90;;;;;;5003883;28;20743;-80
2022/05/09 07:06:16;;;;;;;15.00;13.80;;;18.60;99.90;;;;;;5011873;28;20209;-79
2022/05/09 07:08:44;;;;;;;15.10;14.00;;;18.90;99.90;;;;;;5008122;28;20257;-80
2022/05/09 07:11:12;;;;;;;15.73;14.53;;;19.00;99.90;;;;;;5008355;28;20290;-79
2022/05/09 07:13:40;;;;;;;15.47;14.17;;;19.10;99.90;;;;;;4995510;28;20734;-79
2022/05/09 07:16:09;;;;;;;14.70;13.40;;;19.50;99.90;;;;;;5004279;28;20231;-79
2022/05/09 07:18:38;;;;;;;14.67;13.47;;;19.50;99.90;;;;;;5006003;28;20290;-80
2022/05/09 07:21:05;;;;;;;13.70;12.57;;;19.50;99.90;;;;;;5005142;28;20661;-80
2022/05/09 07:23:33;;;;;;;14.33;13.13;;;19.60;99.90;;;;;;5013353;28;20216;-80
2022/05/09 07:26:01;;;;;;;12.37;11.37;;;19.90;99.90;;;;;;5010210;28;20184;-78
2022/05/09 07:28:29;;;;;;;14.17;13.03;;;19.80;99.90;;;;;;4998432;28;20201;-80
2022/05/09 07:30:57;;;;;;;13.00;11.80;;;19.90;99.90;;;;;;5000378;28;20215;-80
2022/05/09 07:33:26;;;;;;;8.67;7.87;;;20.00;99.90;;;;;;5009048;28;20227;-80
2022/05/09 07:35:52;;;;;;;12.60;11.60;;;20.10;99.90;;;;;;5007107;28;20334;-79
2022/05/09 07:38:19;;;;;;;8.60;7.47;;;20.50;99.90;;;;;;5008462;28;20201;-79
2022/05/09 07:40:48;;;;;;;10.57;7.53;;;20.80;99.90;;;;;;5028771;28;20254;-79
2022/05/09 07:43:17;;;;;;;12.47;11.47;;;21.00;99.90;;;;;;5003273;28;20200;-79
2022/05/09 07:45:44;;;;;;;13.30;12.30;;;21.20;99.90;;;;;;5008478;28;20219;-79
2022/05/09 07:48:12;;;;;;;13.57;12.50;;;21.40;99.90;;;;;;5000141;28;20291;-79
2022/05/09 07:50:41;;;;;;;13.00;12.00;;;21.20;99.90;;;;;;5003058;28;20239;-79
2022/05/09 07:53:11;;;;;;;12.03;11.23;;;21.40;99.90;;;;;;5003337;28;20204;-79
2022/05/09 07:55:40;;;;;;;14.23;12.90;;;21.90;99.90;;;;;;4991375;28;20683;-80
2022/05/09 07:58:07;;;;;;;12.90;11.83;;;22.00;99.90;;;;;;5011108;28;20196;-79
2022/05/09 08:00:35;;;;;;;12.37;11.33;;;21.60;99.90;;;;;;5013836;28;20286;-79
2022/05/09 08:03:06;;;;;;;12.03;11.03;;;22.00;99.90;;;;;;5010771;28;20244;-79
2022/05/09 08:05:33;;;;;;;8.67;7.77;;;21.90;99.90;;;;;;5091278;23;20230;-79
2022/05/09 08:08:02;;;;;;;11.13;7.60;;;22.00;99.90;;;;;;5072670;28;20191;-79
2022/05/09 08:10:29;;;;;;;11.13;10.13;;;22.10;99.90;;;;;;5078269;28;20214;-79
2022/05/09 08:12:58;;;;;;;10.47;9.63;;;22.10;99.90;;;;;;5078296;28;20202;-79
2022/05/09 08:15:26;;;;;;;8.90;6.60;;;21.80;99.90;;;;;;5079473;28;20238;-78
2022/05/09 08:17:53;;;;;;;12.63;11.67;;;22.20;99.90;;;;;;5078213;28;20214;-79
2022/05/09 08:20:21;;;;;;;10.93;8.80;;;22.60;99.90;;;;;;5078260;28;20198;-79
2022/05/09 08:22:49;;;;;;;11.77;10.77;;;22.70;99.90;;;;;;5078083;28;20199;-79
2022/05/09 08:25:18;;;;;;;13.50;12.40;;;22.80;99.90;;;;;;5081801;28;20221;-79
2022/05/09 08:27:45;;;;;;;11.17;10.30;;;22.80;99.90;;;;;;5077096;28;20692;-79
2022/05/09 08:30:13;;;;;;;10.53;9.73;;;22.80;99.90;;;;;;5067866;28;20282;-78
2022/05/09 08:32:40;;;;;;;7.83;6.10;;;23.20;99.90;;;;;;5077597;28;20771;-78
2022/05/09 08:35:09;;;;;;;7.20;5.83;;;23.50;99.90;;;;;;5078720;28;20748;-80
2022/05/09 08:37:36;;;;;;;7.83;6.07;;;23.70;99.90;;;;;;5078548;28;20699;-80
2022/05/09 08:40:04;;;;;;;6.57;5.87;;;23.50;99.90;;;;;;5078429;28;20199;-80
2022/05/09 08:42:40;;;;;;;7.60;6.40;;;23.80;99.90;;;;;;5083965;28;20750;-79
2022/05/09 08:45:21;;;;;;;7.57;6.10;;;22.80;99.90;;;;;;5083258;28;20225;-79
2022/05/09 08:48:10;;;;;;;11.07;7.50;;;22.80;99.90;;;;;;5073569;28;20564;-80
2022/05/09 08:50:57;;;;;;;11.20;10.17;;;22.90;99.90;;;;;;5069404;28;20205;-79
2022/05/09 08:53:26;;;;;;;8.50;7.00;;;22.80;99.90;;;;;;5079663;28;20726;-80
2022/05/09 08:55:56;;;;;;;11.33;6.10;;;22.80;99.90;;;;;;5082472;28;20749;-79
2022/05/09 08:58:37;;;;;;;9.53;6.40;;;23.20;99.90;;;;;;5073525;28;20290;-79
2022/05/09 09:01:12;;;;;;;11.37;5.50;;;23.40;99.90;;;;;;5073084;28;20317;-78
2022/05/09 09:03:43;;;;;;;7.33;6.13;;;23.90;99.90;;;;;;5081165;28;20629;-79
2022/05/09 09:06:17;;;;;;;6.97;5.37;;;24.10;99.90;;;;;;5081359;28;20200;-80
2022/05/09 09:08:58;;;;;;;9.67;6.17;;;24.60;99.90;;;;;;5074434;28;20650;-79
2022/05/09 09:11:31;;;;;;;7.83;7.13;;;24.90;99.90;;;;;;5073060;28;20202;-79
2022/05/09 09:14:08;;;;;;;8.83;8.13;;;24.80;99.90;;;;;;5072534;28;20223;-79
2022/05/09 09:16:52;;;;;;;8.80;8.10;;;24.90;99.90;;;;;;5081161;28;20686;-81
2022/05/09 09:19:41;;;;;;;8.40;7.70;;;25.00;99.90;;;;;;5079503;28;20198;-79
2022/05/09 09:22:19;;;;;;;9.53;8.47;;;25.20;99.90;;;;;;5080938;28;20711;-80
2022/05/09 09:25:10;;;;;;;9.83;7.93;;;25.10;99.90;;;;;;5080653;28;20723;-80
2022/05/09 09:27:42;;;;;;;10.53;9.53;;;25.10;99.90;;;;;;5080251;28;20687;-81
2022/05/09 09:30:15;;;;;;;9.23;8.43;;;24.90;99.90;;;;;;5081001;28;20198;-80
2022/05/09 09:32:45;;;;;;;9.23;8.43;;;24.80;99.90;;;;;;5072085;28;20204;-80
2022/05/09 09:35:19;;;;;;;11.03;8.57;;;25.00;99.90;;;;;;5074100;28;20313;-80
2022/05/09 09:37:52;;;;;;;9.23;8.43;;;24.40;99.90;;;;;;5081836;28;20221;-80
2022/05/09 09:40:20;;;;;;;10.80;9.13;;;24.10;99.90;;;;;;5081751;28;20194;-79
2022/05/09 09:42:47;;;;;;;9.73;8.93;;;23.20;99.90;;;;;;5074768;28;20208;-80
2022/05/09 09:45:28;;;;;;;9.80;8.97;;;23.10;99.90;;;;;;5082300;28;20218;-79
2022/05/09 09:48:14;;;;;;;8.63;7.83;;;23.30;99.90;;;;;;5079312;28;20280;-80
2022/05/09 09:50:56;;;;;;;12.13;8.43;;;23.50;99.90;;;;;;5076545;28;20194;-80
2022/05/09 09:53:35;;;;;;;9.10;8.30;;;24.20;99.90;;;;;;5074606;28;20201;-79
2022/05/09 09:56:07;;;;;;;9.20;8.37;;;24.60;99.90;;;;;;5082516;28;20705;-79
2022/05/09 09:58:34;;;;;;;10.10;9.23;;;24.60;99.90;;;;;;5071525;28;20309;-80
2022/05/09 10:01:10;;;;;;;12.07;11.07;;;24.50;99.90;;;;;;5073508;28;20210;-79
2022/05/09 10:03:40;;;;;;;9.00;8.13;;;24.40;99.90;;;;;;5081397;28;20202;-79
2022/05/09 10:06:19;;;;;;;9.47;8.77;;;24.30;99.90;;;;;;5080857;28;20210;-80
2022/05/09 10:08:58;;;;;;;10.70;9.90;;;24.40;99.90;;;;;;5074347;28;20653;-80
2022/05/09 10:11:28;;;;;;;9.97;9.27;;;24.40;99.90;;;;;;5081850;28;20733;-80
2022/05/09 10:13:57;;;;;;;9.97;9.17;;;24.40;99.90;;;;;;5081606;28;20206;-80
2022/05/09 10:16:30;;;;;;;9.50;8.70;;;24.10;99.90;;;;;;5083194;28;20229;-79
2022/05/09 10:18:58;;;;;;;9.60;8.83;;;24.40;99.90;;;;;;5080850;28;20206;-79
2022/05/09 10:27:07;;;;;;;9.83;9.03;;;23.60;99.90;;;;;;5083040;28;20342;-80
2022/05/09 10:29:40;;;;;;;9.73;9.03;;;23.50;99.90;;;;;;5074929;28;20194;-79
2022/05/09 10:32:12;;;;;;;9.07;8.37;;;23.30;99.90;;;;;;5082714;28;20681;-79
2022/05/09 10:34:47;;;;;;;6.10;4.80;;;23.40;99.90;;;;;;5071451;28;20210;-80
2022/05/09 10:37:24;;;;;;;8.83;8.13;;;23.30;99.90;;;;;;5072623;28;20217;-80
2022/05/09 10:39:56;;;;;;;6.23;5.00;;;23.10;99.90;;;;;;5076407;28;20214;-79
2022/05/09 10:42:33;;;;;;;9.70;8.90;;;22.80;99.90;;;;;;5078867;28;20670;-79
2022/05/09 10:45:06;;;;;;;9.50;8.53;;;22.80;99.90;;;;;;5079699;28;20209;-79
2022/05/09 10:47:41;;;;;;;12.87;6.97;;;22.50;99.90;;;;;;5080593;28;20596;-79
2022/05/09 10:50:15;;;;;;;7.03;6.43;;;22.50;99.90;;;;;;5079631;28;20288;-79
2022/05/09 10:52:47;;;;;;;9.67;8.87;;;22.70;99.90;;;;;;5076525;28;20212;-80
2022/05/09 10:55:22;;;;;;;9.47;8.67;;;23.00;99.90;;;;;;5083120;28;20275;-79
2022/05/09 10:58:02;;;;;;;8.60;8.00;;;23.20;99.90;;;;;;5079673;28;20219;-79
2022/05/09 11:00:32;;;;;;;9.57;8.87;;;23.20;99.90;;;;;;5077237;28;20287;-79
2022/05/09 11:03:11;;;;;;;8.60;7.80;;;23.20;99.90;;;;;;5073931;28;20199;-79
2022/05/09 11:05:54;;;;;;;7.67;6.93;;;22.90;99.90;;;;;;5078669;28;20236;-79
2022/05/09 11:08:27;;;;;;;7.70;7.00;;;22.80;99.90;;;;;;5081640;28;20228;-79
2022/05/09 11:11:05;;;;;;;8.67;7.83;;;22.90;99.90;;;;;;5078645;28;20198;-80
2022/05/09 11:13:45;;;;;;;9.03;8.13;;;23.10;99.90;;;;;;5068908;28;20298;-80
2022/05/09 11:16:20;;;;;;;8.63;8.03;;;23.30;99.90;;;;;;5067638;28;20647;-80
2022/05/09 11:19:04;;;;;;;8.53;7.73;;;23.10;99.90;;;;;;5077226;28;20295;-78
2022/05/09 11:21:40;;;;;;;7.43;6.93;;;23.20;99.90;;;;;;5081493;28;20202;-79
2022/05/09 11:24:22;;;;;;;17.63;8.40;;;23.50;99.90;;;;;;5073889;28;20313;-79
2022/05/09 11:27:05;;;;;;;50.17;9.97;;;23.40;99.90;;;;;;5088916;28;20226;-79
2022/05/09 11:29:44;;;;;;;9.37;6.33;;;23.60;99.90;;;;;;5081669;28;20194;-80
2022/05/09 11:32:27;;;;;;;8.20;7.60;;;23.40;99.90;;;;;;5074552;28;20655;-79
2022/05/09 11:35:29;;;;;;;8.67;7.70;;;23.50;99.90;;;;;;5073515;28;20221;-80
2022/05/09 11:38:04;;;;;;;9.03;8.43;;;23.50;99.90;;;;;;5069300;28;20293;-81
2022/05/09 11:40:38;;;;;;;9.17;8.30;;;23.70;99.90;;;;;;5071882;28;20629;-79
2022/05/09 11:43:30;;;;;;;10.63;8.60;;;23.40;99.90;;;;;;5078946;28;20230;-80
2022/05/09 11:46:07;;;;;;;9.93;9.20;;;23.60;99.90;;;;;;5079553;28;20222;-80
2022/05/09 11:48:46;;;;;;;9.73;8.87;;;23.50;99.90;;;;;;5083160;28;20194;-80
2022/05/09 11:51:24;;;;;;;9.27;8.37;;;23.40;99.90;;;;;;5075818;28;20205;-80
2022/05/09 11:53:58;;;;;;;9.17;8.47;;;22.90;99.90;;;;;;5078724;28;20228;-79
2022/05/09 11:56:25;;;;;;;9.73;8.97;;;22.80;99.90;;;;;;5067278;28;20593;-79
2022/05/09 11:58:53;;;;;;;9.57;8.87;;;22.80;99.90;;;;;;5070652;28;20304;-79
2022/05/09 12:01:57;;;;;;;9.83;8.93;;;22.80;99.90;;;;;;5077267;28;20281;-79
2022/05/09 12:04:39;;;;;;;9.70;9.00;;;22.70;99.90;;;;;;5077658;28;20225;-79
2022/05/09 12:07:48;;;;;;;9.80;9.10;;;22.50;99.90;;;;;;5078316;28;20206;-79
2022/05/09 12:10:27;;;;;;;8.40;7.80;;;22.40;99.90;;;;;;5075847;28;20244;-79
2022/05/09 12:12:56;;;;;;;5.10;4.60;;;22.50;99.90;;;;;;5078664;28;20194;-80
2022/05/09 12:15:40;;;;;;;6.03;4.77;;;22.70;99.90;;;;;;5081188;28;20309;-79
2022/05/09 12:18:27;;;;;;;5.83;4.43;;;22.80;99.90;;;;;;5077812;28;20214;-79
2022/05/09 12:21:04;;;;;;;6.50;4.83;;;22.70;99.90;;;;;;5076786;28;20641;-80
2022/05/09 12:24:12;;;;;;;5.03;4.50;;;22.50;99.90;;;;;;5082670;28;20190;-78
2022/05/09 12:26:41;;;;;;;6.87;5.63;;;22.60;99.90;;;;;;5074416;28;20194;-80
2022/05/09 12:29:24;;;;;;;7.97;6.90;;;22.70;99.90;;;;;;5081993;28;20302;-80
2022/05/09 12:31:54;;;;;;;7.07;6.47;;;22.80;99.90;;;;;;5078853;28;20198;-78
2022/05/09 12:34:27;;;;;;;13.43;7.23;;;22.80;99.90;;;;;;5084369;28;20249;-80
2022/05/09 12:36:54;;;;;;;8.03;7.33;;;22.90;99.90;;;;;;5082345;28;20281;-79
2022/05/09 12:39:31;;;;;;;7.90;7.10;;;22.90;99.90;;;;;;5072278;28;20230;-79
2022/05/09 12:42:00;;;;;;;6.63;6.07;;;23.10;99.90;;;;;;5075327;28;20291;-79
2022/05/09 12:44:30;;;;;;;4.90;4.40;;;23.20;99.90;;;;;;5080924;28;20257;-79
2022/05/09 12:47:01;;;;;;;4.73;4.23;;;23.20;99.90;;;;;;5081545;28;20202;-78
2022/05/09 12:49:35;;;;;;;5.17;4.67;;;23.10;99.90;;;;;;5085993;28;20737;-79
2022/05/09 12:52:03;;;;;;;5.13;4.63;;;22.90;99.90;;;;;;5082494;28;20209;-80
2022/05/09 12:54:33;;;;;;;5.50;4.90;;;23.00;99.90;;;;;;5079045;28;20222;-79
2022/05/09 12:57:02;;;;;;;5.47;4.63;;;23.10;99.90;;;;;;5080379;28;20236;-80
2022/05/09 12:59:45;;;;;;;5.13;4.63;;;22.90;99.90;;;;;;5082866;28;20710;-78
2022/05/09 13:02:21;;;;;;;12.73;5.53;;;22.90;99.90;;;;;;5082551;28;20191;-79
2022/05/09 13:04:50;;;;;;;6.00;4.70;;;23.00;99.90;;;;;;5074866;28;20390;-79
2022/05/09 13:07:17;;;;;;;4.90;4.40;;;23.00;99.90;;;;;;5081643;28;20289;-79
2022/05/09 13:09:52;;;;;;;4.80;4.30;;;23.10;99.90;;;;;;5077603;28;20693;-79
2022/05/09 13:12:24;;;;;;;8.17;4.73;;;23.10;99.90;;;;;;5078942;28;20258;-80